Airfield :
LOGIN :

Register | Disclaimer

   EN    FR    IT 

 










Legend :    VFR   Marginal VFR   IFR   Intensive IFR   Very Intensive IFR
Visi :
Ceiling :
>= 8 km
>= 3000ft
5 to 8 km
1000 to 3000 ft
1500m to 5 km
500 to 1000 ft
800 to 1500m
200 to 500 ft
< 800m
< 200 ft
Symbols :   Thunderstorms  Fog  Heavy snow  Heavy precipitations  Wind > 20 kt
SIGMETs :     Misc.  Thunderstorms  Icing  Turbulence  Mountain Waves  Volcanic Ashes






- Airport Elevation : 235 ft
- IATA code : BZG


EPBY - Bydgoszcz

CURRENT METAR :
  • 071630Z 29008KT 8000 -SHRA FEW019 SCT022 BKN025CB 05/04 Q1009

EXPIRED METARs :
  • 071600Z 28010KT 9999 -SHRA FEW009 SCT017 BKN028CB 06/04 Q1008
  • 071530Z 28011KT 9999 -SHRA FEW009 SCT015 BKN032CB 06/04 Q1008
  • 071500Z 26010KT 9999 -SHRA FEW010 SCT040CB 06/04 Q1007
  • 071430Z 26009KT 9999 -SHRA FEW015 SCT017 BKN037CB 07/03 Q1007
  • 071400Z 28011KT 9999 -SHRA FEW010 BKN030CB OVC036 07/03 Q1007

TAF TAF EPBY
Valid from the 07 at 12:00 until the 08 at 12:00 UTC


071130Z 0712/0812 26010KT 9999 BKN040
TEMPO 0712/0721 SHRA BKN030CB
PROB40
TEMPO 0713/0720 28015G26KT TSRA BKN015CB
PROB30
TEMPO 0808/0812 29016G28KT -SHRA BKN017CB



MET'MAP, your aeronautical weather chart ! - Copyright ORBIFLY December 2007 - Disclaimer

ORBIFLY MET'MAP TEAM :

Programming & Development : Alexandra Zaïnal
Concept & original design : Baudouin d'Aumeries
Assistance for programming : Marc-Olivier Méhu
Technical & hardware support : Manuel Goepfert

Contact : metmap@orbifly.com




SOURCES & CREDITS :

   NOAA